createdAt,value
2018-04-13T00:00:37.722Z,11.90
2018-04-13T00:03:04.465Z,13.10
2018-04-13T00:05:31.327Z,13.03
2018-04-13T00:07:58.170Z,13.20
2018-04-13T00:10:25.078Z,13.60
2018-04-13T00:12:51.208Z,13.40
2018-04-13T00:15:17.344Z,12.57
2018-04-13T00:17:43.522Z,13.13
2018-04-13T00:20:10.530Z,13.67
2018-04-13T00:22:36.692Z,13.80
2018-04-13T00:25:02.831Z,12.20
2018-04-13T00:27:29.739Z,14.50
2018-04-13T00:29:55.867Z,13.10
2018-04-13T00:32:22.064Z,14.80
2018-04-13T00:34:48.221Z,10.87
2018-04-13T00:37:14.438Z,12.03
2018-04-13T00:39:43.417Z,13.80
2018-04-13T00:42:10.337Z,12.40
2018-04-13T00:44:36.397Z,12.80
2018-04-13T00:47:03.789Z,11.80
2018-04-13T00:49:29.822Z,13.20
2018-04-13T00:51:56.714Z,12.63
2018-04-13T00:54:22.835Z,13.70
2018-04-13T00:56:49.111Z,12.30
2018-04-13T00:59:15.234Z,11.50
2018-04-13T01:01:42.074Z,11.53
2018-04-13T01:04:09.019Z,12.97
2018-04-13T01:06:35.141Z,11.30
2018-04-13T01:09:02.771Z,11.33
2018-04-13T01:11:28.873Z,10.97
2018-04-13T01:13:54.999Z,10.87
2018-04-13T01:16:21.180Z,12.03
2018-04-13T01:18:47.256Z,12.40
2018-04-13T01:21:13.502Z,12.00
2018-04-13T01:23:39.652Z,10.80
2018-04-13T01:26:05.808Z,10.70
2018-04-13T01:28:32.011Z,12.00
2018-04-13T01:30:58.195Z,10.90
2018-04-13T01:33:25.139Z,9.10
2018-04-13T01:35:52.218Z,11.63
2018-04-13T01:38:19.794Z,9.93
2018-04-13T01:40:46.718Z,10.33
2018-04-13T01:43:12.795Z,10.60
2018-04-13T01:45:39.084Z,11.00
2018-04-13T01:48:05.228Z,10.40
2018-04-13T01:50:33.144Z,9.73
2018-04-13T01:52:59.383Z,10.50
2018-04-13T01:55:26.258Z,10.80
2018-04-13T01:57:52.359Z,10.80
2018-04-13T02:00:18.444Z,11.13
2018-04-13T02:02:44.556Z,9.83
2018-04-13T02:05:10.751Z,11.53
2018-04-13T02:07:36.912Z,11.50
2018-04-13T02:10:03.118Z,12.40
2018-04-13T02:12:29.288Z,11.17
2018-04-13T02:14:55.496Z,10.83
2018-04-13T02:17:22.315Z,11.80
2018-04-13T02:19:48.415Z,12.50
2018-04-13T02:22:15.260Z,11.80
2018-04-13T02:24:42.139Z,12.13
2018-04-13T02:27:08.236Z,12.30
2018-04-13T02:29:35.675Z,12.30
2018-04-13T02:32:01.851Z,12.00
2018-04-13T02:34:27.961Z,12.60
2018-04-13T02:36:54.111Z,12.40
2018-04-13T02:39:20.234Z,12.93
2018-04-13T02:41:47.078Z,11.93
2018-04-13T02:44:14.356Z,14.13
2018-04-13T02:46:40.793Z,12.10
2018-04-13T02:49:07.670Z,12.53
2018-04-13T02:51:33.751Z,12.37
2018-04-13T02:53:59.805Z,13.30
2018-04-13T02:56:27.423Z,11.67
2018-04-13T02:58:53.834Z,12.00
2018-04-13T03:01:20.031Z,12.67
2018-04-13T03:03:46.852Z,13.10
2018-04-13T03:06:13.776Z,13.50
2018-04-13T03:08:39.906Z,12.53
2018-04-13T03:11:05.947Z,13.47
2018-04-13T03:13:32.121Z,13.10
2018-04-13T03:15:58.939Z,13.73
2018-04-13T03:18:25.049Z,11.87
2018-04-13T03:20:51.259Z,13.93
2018-04-13T03:23:17.332Z,14.77
2018-04-13T03:25:43.387Z,13.00
2018-04-13T03:28:09.712Z,14.23
2018-04-13T03:30:35.798Z,13.47
2018-04-13T03:33:01.891Z,14.27
2018-04-13T03:35:28.735Z,14.17
2018-04-13T03:37:55.625Z,12.70
2018-04-13T03:40:21.642Z,13.73
2018-04-13T03:42:47.851Z,14.13
2018-04-13T03:45:14.916Z,13.30
2018-04-13T03:47:41.765Z,14.10
2018-04-13T03:50:08.680Z,14.50
2018-04-13T03:52:34.983Z,14.97
2018-04-13T03:55:01.870Z,14.03
2018-04-13T03:57:27.985Z,14.20
2018-04-13T03:59:54.106Z,13.87
2018-04-13T04:02:20.252Z,13.37
2018-04-13T04:04:47.412Z,13.30
2018-04-13T04:07:14.430Z,14.07
2018-04-13T04:09:40.572Z,15.10
2018-04-13T04:12:06.730Z,15.03
2018-04-13T04:14:32.732Z,14.53
2018-04-13T04:16:58.943Z,17.30
2018-04-13T04:19:39.377Z,15.57
2018-04-13T04:25:31.257Z,14.33
2018-04-13T04:27:58.295Z,15.47
2018-04-13T04:30:24.426Z,14.87
2018-04-13T04:32:51.454Z,14.80
2018-04-13T04:35:17.654Z,14.43
2018-04-13T04:37:44.467Z,15.70
2018-04-13T04:40:10.666Z,14.53
2018-04-13T04:42:36.777Z,16.40
2018-04-13T04:45:05.315Z,14.20
2018-04-13T04:47:31.439Z,15.47
2018-04-13T04:49:57.531Z,15.00
2018-04-13T04:52:24.587Z,13.93
2018-04-13T04:54:50.610Z,15.77
2018-04-13T04:59:50.993Z,15.20
2018-04-13T05:02:17.341Z,17.03
2018-04-13T05:04:43.498Z,15.50
2018-04-13T05:07:09.718Z,13.97
2018-04-13T05:09:37.276Z,13.57
2018-04-13T05:12:03.542Z,14.50
2018-04-13T05:14:29.587Z,15.00
2018-04-13T05:16:55.722Z,12.40
2018-04-13T05:19:21.898Z,13.60
2018-04-13T05:21:49.087Z,12.80
2018-04-13T05:24:15.169Z,13.13
2018-04-13T05:26:41.828Z,12.50
2018-04-13T05:29:07.986Z,12.63
2018-04-13T05:31:34.083Z,12.50
2018-04-13T05:34:01.175Z,10.70
2018-04-13T05:36:27.843Z,11.80
2018-04-13T05:38:54.677Z,11.90
2018-04-13T05:41:20.845Z,12.00
2018-04-13T05:43:48.722Z,14.47
2018-04-13T05:46:15.281Z,12.63
2018-04-13T05:48:41.399Z,12.87
2018-04-13T05:51:07.549Z,13.27
2018-04-13T05:53:33.667Z,12.63
2018-04-13T05:56:00.822Z,13.33
2018-04-13T05:58:27.895Z,13.10
2018-04-13T06:00:54.889Z,15.03
2018-04-13T06:03:20.970Z,14.20
2018-04-13T06:05:47.509Z,13.33
2018-04-13T06:08:13.749Z,14.27
2018-04-13T06:10:40.544Z,14.10
2018-04-13T06:13:08.142Z,14.03
2018-04-13T06:15:34.322Z,14.33
2018-04-13T06:18:01.218Z,14.17
2018-04-13T06:20:28.221Z,12.93
2018-04-13T06:22:54.666Z,14.43
2018-04-13T06:25:22.321Z,11.43
2018-04-13T06:27:48.532Z,13.90
2018-04-13T06:30:14.805Z,16.60
2018-04-13T06:32:41.646Z,14.60
2018-04-13T06:35:09.873Z,13.57
2018-04-13T06:37:36.032Z,15.33
2018-04-13T06:40:02.758Z,14.93
2018-04-13T06:42:28.876Z,15.27
2018-04-13T06:44:55.143Z,17.03
2018-04-13T06:47:21.470Z,18.10
2018-04-13T06:49:48.227Z,19.23
2018-04-13T06:53:03.698Z,17.80
2018-04-13T06:55:30.600Z,18.40
2018-04-13T06:57:56.727Z,18.73
2018-04-13T07:00:23.091Z,18.83
2018-04-13T07:02:49.180Z,20.67
2018-04-13T07:05:15.397Z,21.33
2018-04-13T07:07:43.425Z,21.07
2018-04-13T07:10:09.600Z,21.20
2018-04-13T07:12:35.745Z,21.13
2018-04-13T07:15:03.528Z,21.20
2018-04-13T07:17:29.734Z,20.87
2018-04-13T07:19:57.434Z,20.03
2018-04-13T07:22:23.708Z,21.50
2018-04-13T07:24:49.932Z,23.30
2018-04-13T07:27:16.036Z,21.47
2018-04-13T07:29:42.188Z,19.97
2018-04-13T07:32:08.392Z,21.20
2018-04-13T07:34:34.476Z,20.60
2018-04-13T07:37:01.067Z,21.37
2018-04-13T07:39:26.814Z,19.20
2018-04-13T07:41:53.534Z,22.67
2018-04-13T07:44:21.885Z,24.27
2018-04-13T07:46:49.037Z,23.97
2018-04-13T07:49:15.941Z,25.97
2018-04-13T07:51:42.113Z,26.87
2018-04-13T07:54:08.957Z,26.77
2018-04-13T07:56:35.052Z,27.30
2018-04-13T07:59:02.096Z,25.00
2018-04-13T08:01:27.927Z,28.00
2018-04-13T08:03:54.082Z,23.50
2018-04-13T08:06:20.266Z,23.03
2018-04-13T08:08:46.460Z,24.23
2018-04-13T08:11:12.567Z,25.00
2018-04-13T08:13:40.633Z,24.43
2018-04-13T08:16:06.736Z,24.97
2018-04-13T08:18:32.996Z,25.50
2018-04-13T08:20:59.127Z,26.97
2018-04-13T08:23:25.880Z,28.10
2018-04-13T08:25:52.734Z,29.77
2018-04-13T08:28:18.828Z,32.07
2018-04-13T08:30:45.045Z,30.67
2018-04-13T08:33:12.561Z,32.33
2018-04-13T08:35:39.362Z,31.90
2018-04-13T08:38:06.186Z,33.57
2018-04-13T08:40:33.193Z,31.40
2018-04-13T08:42:59.287Z,32.20
2018-04-13T08:45:26.134Z,33.10
2018-04-13T08:47:52.319Z,32.00
2018-04-13T08:50:18.454Z,33.03
2018-04-13T08:52:44.816Z,35.17
2018-04-13T08:55:12.005Z,35.33
2018-04-13T08:57:38.213Z,34.20
2018-04-13T09:00:04.296Z,37.13
2018-04-13T09:02:30.421Z,37.30
2018-04-13T09:04:56.554Z,36.70
2018-04-13T09:07:23.118Z,37.70
2018-04-13T09:09:49.919Z,40.43
2018-04-13T09:12:16.018Z,39.57
2018-04-13T09:14:42.816Z,40.47
2018-04-13T09:17:09.720Z,37.73
2018-04-13T09:19:36.545Z,36.27
2018-04-13T09:22:02.726Z,34.13
2018-04-13T09:24:28.857Z,36.80
2018-04-13T09:26:54.981Z,37.63
2018-04-13T09:29:21.825Z,37.07
2018-04-13T09:31:48.697Z,34.30
2018-04-13T09:34:14.875Z,31.20
2018-04-13T09:36:42.072Z,28.57
2018-04-13T09:39:08.282Z,30.03
2018-04-13T09:41:35.243Z,25.70
2018-04-13T09:44:01.505Z,21.93
2018-04-13T09:46:27.959Z,24.10
2018-04-13T09:48:54.185Z,23.60
2018-04-13T09:51:20.385Z,18.70
2018-04-13T09:53:47.438Z,16.60
2018-04-13T09:56:14.308Z,15.13
2018-04-13T09:58:40.403Z,14.37
2018-04-13T10:01:06.474Z,13.83
2018-04-13T10:03:40.570Z,21.00
2018-04-13T10:06:07.445Z,9.57
2018-04-13T10:08:33.585Z,11.43
2018-04-13T10:10:59.755Z,11.80
2018-04-13T10:13:26.044Z,11.10
2018-04-13T10:15:52.216Z,11.33
2018-04-13T10:18:19.099Z,12.17
2018-04-13T10:20:45.842Z,8.90
2018-04-13T10:23:13.622Z,9.77
2018-04-13T10:25:41.318Z,10.77
2018-04-13T10:28:07.526Z,14.37
2018-04-13T10:30:34.653Z,17.97
2018-04-13T10:33:01.483Z,25.13
2018-04-13T10:35:27.622Z,28.53
2018-04-13T10:37:54.508Z,28.43
2018-04-13T10:40:20.718Z,29.10
2018-04-13T10:42:47.654Z,28.37
2018-04-13T10:45:13.754Z,26.30
2018-04-13T10:47:39.913Z,25.67
2018-04-13T10:50:06.073Z,26.27
2018-04-13T10:52:33.004Z,24.10
2018-04-13T10:54:59.133Z,24.70
2018-04-13T10:57:26.165Z,24.97
2018-04-13T10:59:52.975Z,27.43
2018-04-13T11:02:19.087Z,28.93
2018-04-13T11:04:45.333Z,29.07
2018-04-13T11:07:11.338Z,31.83
2018-04-13T11:09:37.572Z,33.07
2018-04-13T11:12:03.685Z,32.53
2018-04-13T11:14:30.752Z,34.70
2018-04-13T11:16:56.961Z,35.17
2018-04-13T11:19:23.113Z,34.30
2018-04-13T11:21:49.266Z,33.03
2018-04-13T11:24:15.507Z,35.77
2018-04-13T11:26:42.767Z,33.07
2018-04-13T11:29:09.024Z,38.50
2018-04-13T11:31:35.212Z,34.80
2018-04-13T11:34:02.296Z,39.17
2018-04-13T11:36:28.564Z,33.77
2018-04-13T11:38:54.773Z,36.67
2018-04-13T11:41:20.947Z,38.07
2018-04-13T11:43:47.217Z,38.73
2018-04-13T11:46:14.593Z,36.60
2018-04-13T11:48:41.432Z,35.80
2018-04-13T11:51:07.556Z,35.83
2018-04-13T11:53:34.812Z,36.13
2018-04-13T11:56:02.889Z,33.77
2018-04-13T11:58:29.802Z,33.17
2018-04-13T12:00:55.831Z,31.03
2018-04-13T12:03:22.042Z,29.00
2018-04-13T12:05:48.189Z,32.67
2018-04-13T12:08:14.269Z,26.30
2018-04-13T12:10:45.743Z,28.93
2018-04-13T12:13:12.147Z,28.47
2018-04-13T12:15:39.340Z,29.33
2018-04-13T12:18:05.725Z,28.93
2018-04-13T12:20:31.989Z,28.03
2018-04-13T12:23:01.934Z,29.17
2018-04-13T12:25:28.113Z,28.70
2018-04-13T12:27:54.892Z,28.90
2018-04-13T12:30:22.106Z,28.77
2018-04-13T12:32:50.055Z,29.60
2018-04-13T12:35:16.919Z,29.57
2018-04-13T12:37:46.979Z,30.10
2018-04-13T12:40:14.850Z,28.20
2018-04-13T12:42:40.960Z,32.63
2018-04-13T12:45:07.052Z,29.10
2018-04-13T12:47:33.742Z,32.83
2018-04-13T12:49:59.895Z,29.50
2018-04-13T12:52:27.346Z,30.70
2018-04-13T12:54:53.898Z,30.63
2018-04-13T12:57:19.835Z,29.13
2018-04-13T12:59:45.992Z,30.73
2018-04-13T13:02:12.280Z,30.67
2018-04-13T13:04:38.745Z,30.53
2018-04-13T13:07:05.476Z,28.43
2018-04-13T13:09:32.213Z,29.00
2018-04-13T13:11:58.269Z,29.00
2018-04-13T13:14:24.391Z,26.00
2018-04-13T13:16:50.801Z,27.37
2018-04-13T13:19:17.957Z,28.47
2018-04-13T13:21:44.185Z,26.80
2018-04-13T13:24:10.281Z,27.47
2018-04-13T13:26:37.376Z,28.10
2018-04-13T13:29:05.144Z,26.23
2018-04-13T13:31:31.987Z,25.40
2018-04-13T13:33:58.170Z,23.03
2018-04-13T13:36:24.453Z,21.93
2018-04-13T13:38:51.313Z,21.77
2018-04-13T13:41:17.552Z,19.77
2018-04-13T13:43:43.764Z,20.60
2018-04-13T13:46:10.018Z,19.43
2018-04-13T13:48:37.237Z,18.87
2018-04-13T13:51:03.407Z,18.50
2018-04-13T13:53:29.602Z,19.40
2018-04-13T13:55:55.799Z,17.60
2018-04-13T13:58:21.904Z,15.10
2018-04-13T14:00:49.058Z,14.40
2018-04-13T14:03:15.177Z,14.60
2018-04-13T14:05:41.597Z,12.03
2018-04-13T14:08:07.648Z,13.63
2018-04-13T14:10:33.763Z,14.47
2018-04-13T14:13:02.732Z,13.60
2018-04-13T14:15:29.574Z,11.20
2018-04-13T14:17:56.371Z,11.60
2018-04-13T14:20:22.492Z,12.10
2018-04-13T14:22:48.701Z,11.10
2018-04-13T14:25:14.889Z,9.80
2018-04-13T14:27:41.872Z,10.60
2018-04-13T14:30:08.219Z,10.10
2018-04-13T14:32:35.067Z,9.33
2018-04-13T14:35:01.748Z,9.30
2018-04-13T14:37:27.926Z,8.90
2018-04-13T14:39:54.030Z,9.80
2018-04-13T14:42:20.772Z,9.77
2018-04-13T14:44:47.694Z,8.50
2018-04-13T14:47:13.961Z,8.63
2018-04-13T14:49:40.895Z,9.00
2018-04-13T14:52:07.696Z,9.53
2018-04-13T14:54:33.925Z,7.90
2018-04-13T14:57:00.039Z,8.27
2018-04-13T14:59:26.191Z,7.60
2018-04-13T15:01:52.356Z,9.00
2018-04-13T15:04:20.408Z,8.40
2018-04-13T15:06:46.987Z,8.50
2018-04-13T15:09:13.138Z,14.73
2018-04-13T15:11:39.183Z,9.60
2018-04-13T15:14:06.118Z,9.17
2018-04-13T15:16:33.083Z,10.87
2018-04-13T15:18:59.213Z,9.97
2018-04-13T15:21:25.986Z,11.47
2018-04-13T15:23:52.088Z,11.40
2018-04-13T15:26:19.635Z,13.03
2018-04-13T15:28:46.027Z,11.40
2018-04-13T15:31:12.266Z,12.23
2018-04-13T15:33:38.399Z,12.20
2018-04-13T15:36:04.597Z,13.07
2018-04-13T15:38:30.710Z,14.00
2018-04-13T15:40:57.462Z,14.57
2018-04-13T15:43:23.610Z,14.33
2018-04-13T15:45:49.828Z,13.80
2018-04-13T15:48:15.933Z,14.60
2018-04-13T15:50:42.950Z,15.43
2018-04-13T15:53:09.141Z,14.80
2018-04-13T15:55:35.966Z,14.87
2018-04-13T15:58:03.720Z,16.10
2018-04-13T16:00:29.779Z,14.77
2018-04-13T16:02:55.920Z,14.83
2018-04-13T16:05:22.057Z,14.77
2018-04-13T16:07:48.194Z,16.20
2018-04-13T16:10:14.359Z,16.13
2018-04-13T16:12:40.544Z,31.77
2018-04-13T16:15:07.453Z,16.90
2018-04-13T16:17:33.596Z,14.50
2018-04-13T16:20:01.715Z,15.97
2018-04-13T16:22:28.639Z,17.00
2018-04-13T16:24:55.559Z,15.17
2018-04-13T16:27:21.781Z,16.10
2018-04-13T16:29:49.061Z,15.70
2018-04-13T16:32:15.253Z,14.87
2018-04-13T16:34:41.540Z,15.60
2018-04-13T16:37:07.771Z,15.93
2018-04-13T16:39:34.898Z,16.47
2018-04-13T16:42:01.082Z,15.37
2018-04-13T16:44:27.978Z,17.30
2018-04-13T16:46:55.991Z,15.80
2018-04-13T16:49:22.140Z,14.63
2018-04-13T16:51:50.091Z,13.50
2018-04-13T16:54:16.474Z,16.17
2018-04-13T16:56:42.845Z,18.20
2018-04-13T16:59:09.152Z,15.30
2018-04-13T17:01:35.165Z,16.80
2018-04-13T17:04:02.101Z,17.73
2018-04-13T17:06:28.176Z,16.43
2018-04-13T17:08:54.339Z,18.00
2018-04-13T17:11:22.106Z,18.20
2018-04-13T17:13:48.432Z,16.83
2018-04-13T17:16:14.613Z,17.23
2018-04-13T17:18:41.584Z,18.27
2018-04-13T17:21:08.043Z,18.50
2018-04-13T17:23:34.213Z,30.53
2018-04-13T17:26:01.211Z,18.27
2018-04-13T17:28:28.004Z,20.13
2018-04-13T17:30:54.403Z,19.10
2018-04-13T17:33:23.518Z,17.93
2018-04-13T17:35:49.504Z,20.37
2018-04-13T17:38:15.720Z,18.53
2018-04-13T17:40:42.576Z,19.17
2018-04-13T17:43:10.073Z,18.03
2018-04-13T17:45:37.941Z,18.53
2018-04-13T17:48:04.046Z,17.40
2018-04-13T17:50:31.067Z,18.17
2018-04-13T17:52:57.130Z,19.13
2018-04-13T17:55:25.613Z,17.20
2018-04-13T17:57:52.426Z,18.40
2018-04-13T18:00:18.691Z,18.13
2018-04-13T18:02:46.262Z,17.63
2018-04-13T18:05:12.506Z,19.73
2018-04-13T18:07:39.265Z,17.07
2018-04-13T18:10:05.394Z,19.40
2018-04-13T18:12:32.051Z,19.57
2018-04-13T18:14:58.939Z,19.20
2018-04-13T18:17:27.838Z,19.13
2018-04-13T18:19:54.196Z,20.30
2018-04-13T18:22:20.434Z,27.53
2018-04-13T18:24:47.270Z,21.47
2018-04-13T18:27:13.539Z,20.23
2018-04-13T18:29:40.029Z,18.80
2018-04-13T18:32:06.122Z,19.20
2018-04-13T18:34:32.180Z,19.30
2018-04-13T18:36:58.922Z,19.57
2018-04-13T18:39:25.190Z,21.40
2018-04-13T18:41:51.730Z,20.80
2018-04-13T18:44:18.033Z,21.20
2018-04-13T18:46:44.901Z,22.23
2018-04-13T18:49:11.507Z,21.40
2018-04-13T18:51:37.712Z,21.83
2018-04-13T18:54:04.152Z,22.10
2018-04-13T18:56:30.934Z,21.43
2018-04-13T18:58:57.031Z,24.03
2018-04-13T19:01:24.765Z,23.07
2018-04-13T19:03:51.327Z,23.50
2018-04-13T19:06:18.872Z,21.37
2018-04-13T19:08:45.084Z,23.50
2018-04-13T19:11:11.298Z,22.57
2018-04-13T19:13:37.443Z,23.00
2018-04-13T19:16:03.553Z,21.73
2018-04-13T19:18:29.569Z,22.43
2018-04-13T19:20:55.621Z,23.80
2018-04-13T19:23:22.317Z,24.03
2018-04-13T19:25:49.248Z,23.77
2018-04-13T19:28:15.278Z,22.93
2018-04-13T19:30:41.611Z,23.30
2018-04-13T19:33:07.748Z,20.90
2018-04-13T19:35:35.027Z,22.20
2018-04-13T19:38:01.714Z,21.70
2018-04-13T19:40:28.914Z,22.60
2018-04-13T19:42:55.945Z,22.83
2018-04-13T19:45:24.011Z,21.07
2018-04-13T19:47:50.109Z,21.03
2018-04-13T19:50:16.172Z,20.57
2018-04-13T19:52:42.378Z,20.70
2018-04-13T19:55:08.377Z,21.60
2018-04-13T19:57:34.396Z,22.87
2018-04-13T20:00:03.938Z,21.30
2018-04-13T20:02:29.988Z,21.23
2018-04-13T20:04:56.003Z,21.60
2018-04-13T20:07:24.045Z,22.80
2018-04-13T20:09:52.014Z,24.50
2018-04-13T20:12:18.085Z,21.27
2018-04-13T20:14:44.540Z,24.70
2018-04-13T20:17:10.707Z,22.20
2018-04-13T20:19:36.742Z,20.80
2018-04-13T20:22:02.862Z,20.30
2018-04-13T20:24:28.961Z,20.13
2018-04-13T20:26:54.985Z,20.60
2018-04-13T20:29:26.944Z,20.77
2018-04-13T20:31:54.757Z,21.07
2018-04-13T20:34:20.880Z,21.87
2018-04-13T20:36:47.150Z,21.97
2018-04-13T20:39:14.053Z,21.80
2018-04-13T20:41:40.145Z,21.53
2018-04-13T20:44:06.308Z,21.87
2018-04-13T20:46:32.409Z,21.20
2018-04-13T20:49:01.018Z,22.13
2018-04-13T20:51:27.120Z,23.10
2018-04-13T20:53:53.922Z,20.27
2018-04-13T20:56:20.277Z,20.97
2018-04-13T20:58:47.128Z,20.30
2018-04-13T21:01:13.203Z,20.60
2018-04-13T21:03:39.448Z,20.90
2018-04-13T21:06:08.044Z,20.73
2018-04-13T21:08:34.147Z,19.93
2018-04-13T21:11:00.309Z,20.83
2018-04-13T21:13:27.123Z,21.60
2018-04-13T21:15:54.209Z,20.57
2018-04-13T21:18:20.252Z,18.30
2018-04-13T21:20:47.486Z,19.43
2018-04-13T21:23:13.758Z,22.80
2018-04-13T21:25:40.355Z,19.97
2018-04-13T21:28:06.579Z,21.57
2018-04-13T21:30:33.889Z,19.80
2018-04-13T21:33:02.208Z,19.93
2018-04-13T21:35:29.541Z,18.87
2018-04-13T21:37:55.897Z,20.83
2018-04-13T21:40:22.691Z,19.27
2018-04-13T21:42:49.327Z,20.50
2018-04-13T21:47:59.738Z,22.60
2018-04-13T21:52:59.309Z,22.53
2018-04-13T21:55:28.352Z,22.77
2018-04-13T21:57:54.688Z,21.23
2018-04-13T22:00:20.821Z,20.90
2018-04-13T22:02:46.940Z,20.63
2018-04-13T22:05:13.778Z,21.97
2018-04-13T22:07:39.908Z,21.73
2018-04-13T22:10:06.085Z,20.53
2018-04-13T22:12:45.289Z,22.40
2018-04-13T22:15:11.403Z,24.10
2018-04-13T22:17:37.789Z,21.43
2018-04-13T22:20:05.469Z,22.10
2018-04-13T22:22:32.229Z,20.47
2018-04-13T22:24:59.164Z,20.30
2018-04-13T22:27:25.309Z,19.10
2018-04-13T22:29:52.194Z,20.10
2018-04-13T22:32:19.155Z,22.50
2018-04-13T22:34:45.311Z,23.10
2018-04-13T22:37:12.156Z,27.00
2018-04-13T22:39:39.023Z,21.97
2018-04-13T22:42:05.525Z,23.23
2018-04-13T22:44:31.583Z,25.00
2018-04-13T22:46:57.797Z,24.10
2018-04-13T22:49:31.942Z,24.93
2018-04-13T22:51:57.977Z,22.83
2018-04-13T22:54:25.122Z,23.30
2018-04-13T22:56:53.657Z,23.80
2018-04-13T22:59:19.767Z,24.60
2018-04-13T23:01:45.874Z,24.03
2018-04-13T23:04:11.916Z,26.73
2018-04-13T23:06:38.822Z,25.80
2018-04-13T23:09:04.909Z,29.00
2018-04-13T23:11:31.538Z,25.60
2018-04-13T23:13:58.515Z,25.63
2018-04-13T23:16:24.519Z,26.60
2018-04-13T23:18:51.791Z,26.93
2018-04-13T23:21:17.860Z,25.27
2018-04-13T23:23:43.892Z,27.07
2018-04-13T23:26:09.968Z,26.23
2018-04-13T23:28:36.831Z,26.00
2018-04-13T23:31:02.935Z,26.50
2018-04-13T23:33:28.990Z,27.60
2018-04-13T23:35:55.811Z,28.07
2018-04-13T23:38:22.649Z,24.80
2018-04-13T23:40:48.834Z,25.67
2018-04-13T23:43:14.928Z,25.30
2018-04-13T23:45:41.696Z,24.63
2018-04-13T23:48:08.497Z,27.07
2018-04-13T23:50:34.585Z,26.80
2018-04-13T23:53:00.689Z,27.57
2018-04-13T23:55:27.468Z,26.47
2018-04-13T23:57:53.543Z,26.30
